Terminal Aerodrome Forecast
Issued by NWS Quad Cities IA IL

Home | Current Version | Previous Version | Graphics & Text | Print | Product List | Glossary On
Versions: 1 2 3 4 5 6 7 8 9 10 11 12 13 14 15 16 17 18 19 20 21 22 23 24 25
000
FTUS43 KDVN 210440 AAA
TAFDBQ
TAF AMD
KDBQ 210440Z 2105/2124 31016KT P6SM SCT015
      TEMPO 2105/2107 BKN018
     FM210800 33013KT P6SM OVC250=

USA.gov is the U.S. government's official web portal to all federal, state and local government web resources and services.